createdAt,value
2017-05-03T00:01:06.212Z,8.58
2017-05-03T00:06:01.667Z,8.67
2017-05-03T00:10:57.645Z,8.53
2017-05-03T00:15:53.186Z,8.64
2017-05-03T00:20:48.693Z,8.46
2017-05-03T00:25:44.713Z,8.55
2017-05-03T00:30:40.943Z,8.61
2017-05-03T00:35:36.432Z,8.58
2017-05-03T00:40:32.633Z,8.44
2017-05-03T00:45:28.030Z,8.66
2017-05-03T00:50:23.805Z,8.61
2017-05-03T00:55:19.714Z,8.60
2017-05-03T01:00:15.934Z,8.69
2017-05-03T01:05:25.071Z,8.58
2017-05-03T01:10:18.735Z,8.69
2017-05-03T01:15:14.015Z,8.63
2017-05-03T01:20:09.695Z,8.61
2017-05-03T01:25:05.638Z,8.66
2017-05-03T01:30:01.195Z,8.70
2017-05-03T01:34:57.054Z,8.60
2017-05-03T01:39:52.118Z,8.71
2017-05-03T01:44:47.981Z,8.70
2017-05-03T01:49:44.063Z,8.91
2017-05-03T01:54:39.420Z,8.89
2017-05-03T01:59:34.914Z,8.88
2017-05-03T02:04:30.979Z,8.92
2017-05-03T02:09:28.522Z,8.84
2017-05-03T02:14:24.072Z,8.92
2017-05-03T02:19:19.609Z,8.91
2017-05-03T02:24:15.076Z,8.82
2017-05-03T02:29:10.766Z,8.87
2017-05-03T02:34:06.829Z,8.92
2017-05-03T02:39:03.566Z,8.88
2017-05-03T02:43:59.815Z,8.84
2017-05-03T02:48:55.609Z,8.84
2017-05-03T02:53:50.999Z,8.84
2017-05-03T02:58:47.540Z,8.78
2017-05-03T03:03:43.663Z,8.92
2017-05-03T03:08:39.482Z,8.87
2017-05-03T03:13:35.748Z,8.92
2017-05-03T03:18:32.413Z,8.81
2017-05-03T03:23:27.828Z,8.82
2017-05-03T03:28:23.565Z,8.87
2017-05-03T03:33:19.223Z,8.92
2017-05-03T03:43:14.311Z,8.74
2017-05-03T03:48:09.876Z,8.79
2017-05-03T03:53:05.749Z,8.82
2017-05-03T03:58:01.526Z,8.87
2017-05-03T04:02:57.114Z,8.84
2017-05-03T04:07:52.834Z,8.85
2017-05-03T04:12:48.553Z,8.91
2017-05-03T04:17:43.955Z,8.92
2017-05-03T04:22:40.639Z,8.89
2017-05-03T04:27:36.115Z,8.82
2017-05-03T04:32:32.304Z,8.89
2017-05-03T04:37:27.566Z,8.78
2017-05-03T04:42:23.289Z,8.91
2017-05-03T04:47:19.463Z,8.89
2017-05-03T04:52:16.130Z,8.85
2017-05-03T04:57:11.828Z,8.94
2017-05-03T05:02:07.599Z,8.95
2017-05-03T05:07:04.329Z,8.88
2017-05-03T05:11:59.884Z,8.91
2017-05-03T05:16:55.637Z,8.91
2017-05-03T05:21:51.891Z,8.89
2017-05-03T05:26:47.423Z,8.95
2017-05-03T05:31:43.171Z,9.08
2017-05-03T05:36:40.089Z,9.06
2017-05-03T05:41:35.428Z,9.21
2017-05-03T05:46:31.189Z,9.11
2017-05-03T05:51:26.883Z,9.19
2017-05-03T05:56:22.954Z,9.22
2017-05-03T06:01:18.733Z,9.28
2017-05-03T06:06:14.672Z,9.54
2017-05-03T06:11:10.828Z,9.46
2017-05-03T06:16:06.560Z,9.46
2017-05-03T06:21:02.264Z,9.46
2017-05-03T06:25:59.013Z,9.65
2017-05-03T06:30:54.751Z,9.58
2017-05-03T06:35:50.399Z,9.58
2017-05-03T06:40:46.719Z,9.95
2017-05-03T06:45:42.928Z,10.01
2017-05-03T06:50:38.647Z,9.97
2017-05-03T06:55:34.510Z,10.05
2017-05-03T07:00:30.489Z,10.22
2017-05-03T07:05:26.220Z,10.37
2017-05-03T07:10:21.843Z,10.51
2017-05-03T07:15:17.830Z,10.72
2017-05-03T07:20:15.321Z,10.49
2017-05-03T07:25:11.285Z,10.63
2017-05-03T07:30:07.547Z,10.79
2017-05-03T07:35:03.227Z,10.99
2017-05-03T07:39:59.492Z,11.18
2017-05-03T07:44:55.313Z,11.14
2017-05-03T07:49:51.108Z,11.17
2017-05-03T07:54:47.154Z,11.12
2017-05-03T07:59:42.705Z,11.02
2017-05-03T08:04:38.828Z,11.45
2017-05-03T08:09:35.286Z,11.68
2017-05-03T08:14:31.393Z,11.65
2017-05-03T08:19:26.594Z,11.80
2017-05-03T08:24:23.289Z,12.12
2017-05-03T08:29:20.227Z,12.36
2017-05-03T08:34:16.876Z,12.98
2017-05-03T08:39:15.163Z,13.28
2017-05-03T08:44:10.007Z,13.03
2017-05-03T08:49:07.292Z,12.97
2017-05-03T08:54:02.252Z,12.35
2017-05-03T08:58:57.509Z,12.53
2017-05-03T09:03:53.117Z,12.22
2017-05-03T09:08:48.664Z,12.58
2017-05-03T09:13:44.853Z,12.86
2017-05-03T09:18:41.167Z,12.93
2017-05-03T09:23:36.661Z,13.01
2017-05-03T09:28:35.334Z,13.83
2017-05-03T09:33:32.112Z,14.17
2017-05-03T09:38:28.946Z,14.37
2017-05-03T09:43:23.712Z,13.96
2017-05-03T09:48:19.387Z,13.79
2017-05-03T09:53:15.612Z,14.28
2017-05-03T09:58:12.041Z,14.20
2017-05-03T10:03:09.154Z,14.17
2017-05-03T10:08:04.456Z,14.17
2017-05-03T10:12:58.366Z,13.56
2017-05-03T10:17:53.592Z,13.33
2017-05-03T10:22:48.745Z,13.11
2017-05-03T10:27:44.149Z,13.31
2017-05-03T10:32:41.361Z,13.70
2017-05-03T10:37:38.145Z,13.93
2017-05-03T10:42:34.426Z,13.87
2017-05-03T10:47:31.934Z,14.70
2017-05-03T10:52:30.861Z,14.65
2017-05-03T10:57:25.531Z,15.04
2017-05-03T11:02:21.650Z,15.11
2017-05-03T11:07:17.978Z,15.00
2017-05-03T11:12:13.167Z,15.14
2017-05-03T11:17:10.058Z,15.17
2017-05-03T11:22:06.399Z,14.91
2017-05-03T11:27:03.142Z,15.40
2017-05-03T11:31:59.915Z,15.77
2017-05-03T11:36:56.677Z,15.58
2017-05-03T11:41:53.178Z,15.83
2017-05-03T11:46:47.394Z,15.52
2017-05-03T11:51:43.541Z,15.51
2017-05-03T11:56:39.549Z,16.05
2017-05-03T12:01:37.745Z,16.39
2017-05-03T12:06:34.147Z,17.12
2017-05-03T12:11:31.248Z,16.72
2017-05-03T12:16:28.523Z,15.98
2017-05-03T12:21:23.490Z,15.94
2017-05-03T12:26:18.232Z,15.55
2017-05-03T12:31:15.149Z,16.23
2017-05-03T12:36:12.161Z,16.75
2017-05-03T12:41:07.681Z,16.81
2017-05-03T12:46:03.712Z,16.61
2017-05-03T12:50:57.911Z,16.04
2017-05-03T12:55:53.519Z,16.43
2017-05-03T13:00:48.997Z,16.43
2017-05-03T13:05:44.956Z,16.12
2017-05-03T13:10:40.773Z,16.60
2017-05-03T13:15:37.219Z,16.66
2017-05-03T13:20:32.068Z,16.23
2017-05-03T13:25:27.204Z,16.32
2017-05-03T13:30:22.981Z,16.36
2017-05-03T13:35:19.307Z,16.09
2017-05-03T13:40:16.597Z,16.09
2017-05-03T13:45:11.371Z,16.10
2017-05-03T13:50:07.294Z,16.04
2017-05-03T13:55:03.030Z,15.90
2017-05-03T13:59:58.494Z,16.09
2017-05-03T14:04:54.364Z,16.01
2017-05-03T14:09:50.544Z,16.17
2017-05-03T14:14:46.101Z,16.29
2017-05-03T14:19:41.741Z,16.29
2017-05-03T14:24:37.355Z,16.46
2017-05-03T14:29:33.090Z,16.24
2017-05-03T14:34:28.883Z,16.29
2017-05-03T14:39:24.712Z,16.36
2017-05-03T14:44:20.565Z,16.42
2017-05-03T14:49:16.369Z,16.38
2017-05-03T14:54:12.923Z,16.28
2017-05-03T14:59:08.529Z,16.10
2017-05-03T15:04:04.219Z,16.23
2017-05-03T15:09:00.088Z,16.17
2017-05-03T15:13:55.839Z,16.31
2017-05-03T15:18:51.331Z,16.36
2017-05-03T15:23:47.631Z,16.35
2017-05-03T15:28:43.446Z,16.29
2017-05-03T15:33:38.680Z,16.20
2017-05-03T15:38:34.279Z,16.12
2017-05-03T15:43:31.121Z,15.90
2017-05-03T15:48:26.217Z,15.77
2017-05-03T15:53:22.691Z,15.61
2017-05-03T15:58:18.744Z,15.36
2017-05-03T16:03:14.272Z,14.97
2017-05-03T16:08:09.827Z,14.62
2017-05-03T16:13:05.342Z,14.63
2017-05-03T16:18:00.785Z,14.25
2017-05-03T16:22:56.297Z,13.85
2017-05-03T16:27:52.125Z,13.50
2017-05-03T16:32:48.219Z,13.30
2017-05-03T16:37:43.401Z,13.18
2017-05-03T16:42:39.414Z,13.19
2017-05-03T16:47:34.941Z,13.11
2017-05-03T16:52:32.096Z,13.03
2017-05-03T16:57:28.560Z,13.00
2017-05-03T17:02:24.682Z,13.03
2017-05-03T17:12:21.949Z,13.01
2017-05-03T17:17:17.474Z,13.19
2017-05-03T17:22:13.625Z,13.04
2017-05-03T17:27:09.251Z,13.08
2017-05-03T17:37:06.852Z,13.05
2017-05-03T17:47:03.592Z,13.01
2017-05-03T17:51:59.310Z,13.03
2017-05-03T17:56:55.906Z,13.04
2017-05-03T18:01:52.681Z,13.03
2017-05-03T18:06:47.882Z,12.54
2017-05-03T18:11:45.778Z,12.12
2017-05-03T18:16:40.639Z,11.75
2017-05-03T18:21:37.125Z,11.86
2017-05-03T18:26:31.865Z,11.84
2017-05-03T18:31:27.786Z,11.66
2017-05-03T18:36:24.266Z,11.77
2017-05-03T18:41:22.205Z,11.86
2017-05-03T18:46:18.630Z,11.88
2017-05-03T18:51:14.232Z,11.70
2017-05-03T18:56:09.928Z,11.55
2017-05-03T19:01:06.373Z,11.48
2017-05-03T19:06:06.331Z,11.60
2017-05-03T19:11:01.385Z,11.54
2017-05-03T19:20:58.863Z,11.54
2017-05-03T19:25:57.784Z,11.55
2017-05-03T19:30:55.787Z,11.57
2017-05-03T19:35:52.558Z,11.70
2017-05-03T19:40:48.918Z,11.66
2017-05-03T19:45:44.321Z,11.73
2017-05-03T19:50:40.627Z,11.69
2017-05-03T20:05:38.133Z,11.60
2017-05-03T20:10:33.691Z,11.70
2017-05-03T20:20:30.418Z,11.52
2017-05-03T20:25:26.391Z,11.59
2017-05-03T20:30:24.550Z,11.55
2017-05-03T20:35:23.456Z,11.54
2017-05-03T20:40:18.946Z,11.51
2017-05-03T20:50:18.916Z,11.60
2017-05-03T20:55:19.839Z,11.52
2017-05-03T21:00:25.128Z,11.51
2017-05-03T21:05:19.514Z,11.60
2017-05-03T21:10:15.618Z,11.54
2017-05-03T21:15:14.459Z,11.66
2017-05-03T21:20:09.499Z,11.55
2017-05-03T21:25:14.305Z,11.48
2017-05-03T21:30:08.304Z,11.47
2017-05-03T21:35:04.246Z,11.54
2017-05-03T21:39:59.462Z,11.52
2017-05-03T21:44:55.252Z,11.47
2017-05-03T21:49:50.815Z,11.41
2017-05-03T21:54:49.077Z,11.45
2017-05-03T22:04:43.858Z,11.41
2017-05-03T22:09:40.261Z,11.44
2017-05-03T22:14:40.379Z,11.52
2017-05-03T22:19:37.182Z,11.32
2017-05-03T22:24:32.857Z,11.35
2017-05-03T22:29:30.674Z,11.30
2017-05-03T22:54:40.085Z,11.43
2017-05-03T22:59:35.805Z,11.45
2017-05-03T23:04:31.170Z,11.41
2017-05-03T23:09:27.415Z,11.41
2017-05-03T23:14:28.510Z,11.30
2017-05-03T23:24:26.031Z,11.18
2017-05-03T23:39:23.615Z,11.19
2017-05-03T23:44:21.355Z,11.15
2017-05-03T23:49:18.779Z,11.18
2017-05-03T23:54:13.882Z,11.15
2017-05-03T23:59:09.465Z,11.15
